sensor_id;sensor_type;location;lat;lon;timestamp;P1;durP1;ratioP1;P2;durP2;ratioP2
67187;SDS011;54117;53.532;49.426;2022-07-23T00:00:21;6.70;;;5.18;;
67187;SDS011;54117;53.532;49.426;2022-07-23T00:02:48;6.60;;;4.93;;
67187;SDS011;54117;53.532;49.426;2022-07-23T00:05:14;7.07;;;5.05;;
67187;SDS011;54117;53.532;49.426;2022-07-23T00:07:40;11.88;;;4.55;;
67187;SDS011;54117;53.532;49.426;2022-07-23T00:10:07;12.15;;;4.43;;
67187;SDS011;54117;53.532;49.426;2022-07-23T00:12:34;7.93;;;4.18;;
67187;SDS011;54117;53.532;49.426;2022-07-23T00:15:01;9.05;;;4.45;;
67187;SDS011;54117;53.532;49.426;2022-07-23T00:17:29;9.15;;;4.93;;
67187;SDS011;54117;53.532;49.426;2022-07-23T00:19:55;8.43;;;4.35;;
67187;SDS011;54117;53.532;49.426;2022-07-23T00:22:21;11.10;;;5.10;;
67187;SDS011;54117;53.532;49.426;2022-07-23T00:24:48;6.85;;;4.60;;
67187;SDS011;54117;53.532;49.426;2022-07-23T00:27:16;5.93;;;4.30;;
67187;SDS011;54117;53.532;49.426;2022-07-23T00:29:42;7.25;;;4.55;;
67187;SDS011;54117;53.532;49.426;2022-07-23T00:32:08;6.85;;;4.13;;
67187;SDS011;54117;53.532;49.426;2022-07-23T00:34:35;7.65;;;4.28;;
67187;SDS011;54117;53.532;49.426;2022-07-23T00:37:01;5.93;;;3.53;;
67187;SDS011;54117;53.532;49.426;2022-07-23T00:39:27;10.13;;;4.30;;
67187;SDS011;54117;53.532;49.426;2022-07-23T00:41:54;4.07;;;3.67;;
67187;SDS011;54117;53.532;49.426;2022-07-23T00:44:21;5.30;;;3.67;;
67187;SDS011;54117;53.532;49.426;2022-07-23T00:46:56;5.80;;;4.10;;
67187;SDS011;54117;53.532;49.426;2022-07-23T00:49:25;9.30;;;4.03;;
67187;SDS011;54117;53.532;49.426;2022-07-23T00:51:53;6.25;;;4.15;;
67187;SDS011;54117;53.532;49.426;2022-07-23T00:54:21;9.65;;;4.38;;
67187;SDS011;54117;53.532;49.426;2022-07-23T00:56:49;7.25;;;5.18;;
67187;SDS011;54117;53.532;49.426;2022-07-23T00:59:16;6.95;;;5.18;;
67187;SDS011;54117;53.532;49.426;2022-07-23T01:01:42;9.27;;;4.85;;
67187;SDS011;54117;53.532;49.426;2022-07-23T01:04:14;7.78;;;4.75;;
67187;SDS011;54117;53.532;49.426;2022-07-23T01:06:41;6.22;;;4.68;;
67187;SDS011;54117;53.532;49.426;2022-07-23T01:09:09;8.40;;;5.00;;
67187;SDS011;54117;53.532;49.426;2022-07-23T01:11:36;9.15;;;3.55;;
67187;SDS011;54117;53.532;49.426;2022-07-23T01:14:09;4.32;;;3.92;;
67187;SDS011;54117;53.532;49.426;2022-07-23T01:16:37;7.90;;;3.58;;
67187;SDS011;54117;53.532;49.426;2022-07-23T01:19:04;12.98;;;3.60;;
67187;SDS011;54117;53.532;49.426;2022-07-23T01:21:33;9.65;;;3.60;;
67187;SDS011;54117;53.532;49.426;2022-07-23T01:24:01;12.75;;;4.10;;
67187;SDS011;54117;53.532;49.426;2022-07-23T01:26:28;5.78;;;3.30;;
67187;SDS011;54117;53.532;49.426;2022-07-23T01:28:54;10.13;;;4.10;;
67187;SDS011;54117;53.532;49.426;2022-07-23T01:31:20;11.32;;;3.35;;
67187;SDS011;54117;53.532;49.426;2022-07-23T01:33:47;7.57;;;3.60;;
67187;SDS011;54117;53.532;49.426;2022-07-23T01:36:14;4.03;;;3.20;;
67187;SDS011;54117;53.532;49.426;2022-07-23T01:38:40;10.25;;;3.97;;
67187;SDS011;54117;53.532;49.426;2022-07-23T01:41:07;12.13;;;4.20;;
67187;SDS011;54117;53.532;49.426;2022-07-23T01:43:33;7.07;;;4.20;;
67187;SDS011;54117;53.532;49.426;2022-07-23T01:45:59;5.18;;;4.50;;
67187;SDS011;54117;53.532;49.426;2022-07-23T01:48:26;9.23;;;4.13;;
67187;SDS011;54117;53.532;49.426;2022-07-23T01:50:52;14.73;;;4.68;;
67187;SDS011;54117;53.532;49.426;2022-07-23T01:53:18;7.57;;;4.40;;
67187;SDS011;54117;53.532;49.426;2022-07-23T01:55:45;7.35;;;3.88;;
67187;SDS011;54117;53.532;49.426;2022-07-23T01:58:11;8.88;;;4.38;;
67187;SDS011;54117;53.532;49.426;2022-07-23T02:00:38;12.07;;;4.50;;
67187;SDS011;54117;53.532;49.426;2022-07-23T02:03:06;9.48;;;3.58;;
67187;SDS011;54117;53.532;49.426;2022-07-23T02:05:32;5.88;;;3.20;;
67187;SDS011;54117;53.532;49.426;2022-07-23T02:07:59;7.40;;;3.00;;
67187;SDS011;54117;53.532;49.426;2022-07-23T02:10:26;15.27;;;3.63;;
67187;SDS011;54117;53.532;49.426;2022-07-23T02:12:53;9.98;;;3.35;;
67187;SDS011;54117;53.532;49.426;2022-07-23T02:15:19;6.60;;;3.40;;
67187;SDS011;54117;53.532;49.426;2022-07-23T02:17:46;13.07;;;4.10;;
67187;SDS011;54117;53.532;49.426;2022-07-23T02:20:12;12.73;;;4.07;;
67187;SDS011;54117;53.532;49.426;2022-07-23T02:22:39;11.70;;;3.67;;
67187;SDS011;54117;53.532;49.426;2022-07-23T02:25:06;6.18;;;4.20;;
67187;SDS011;54117;53.532;49.426;2022-07-23T02:27:33;11.25;;;5.35;;
67187;SDS011;54117;53.532;49.426;2022-07-23T02:29:59;8.50;;;4.90;;
67187;SDS011;54117;53.532;49.426;2022-07-23T02:32:26;12.73;;;7.32;;
67187;SDS011;54117;53.532;49.426;2022-07-23T02:34:52;14.35;;;6.45;;
67187;SDS011;54117;53.532;49.426;2022-07-23T02:37:18;11.88;;;5.93;;
67187;SDS011;54117;53.532;49.426;2022-07-23T02:39:44;26.33;;;11.02;;
67187;SDS011;54117;53.532;49.426;2022-07-23T02:42:11;27.08;;;12.50;;
67187;SDS011;54117;53.532;49.426;2022-07-23T02:44:37;22.80;;;11.27;;
67187;SDS011;54117;53.532;49.426;2022-07-23T02:47:03;28.23;;;13.45;;
67187;SDS011;54117;53.532;49.426;2022-07-23T02:49:30;21.20;;;11.32;;
67187;SDS011;54117;53.532;49.426;2022-07-23T02:51:56;18.52;;;9.25;;
67187;SDS011;54117;53.532;49.426;2022-07-23T02:54:22;21.10;;;9.50;;
67187;SDS011;54117;53.532;49.426;2022-07-23T02:56:48;17.33;;;8.93;;
67187;SDS011;54117;53.532;49.426;2022-07-23T02:59:16;49.75;;;17.63;;
67187;SDS011;54117;53.532;49.426;2022-07-23T03:01:43;47.17;;;17.58;;
67187;SDS011;54117;53.532;49.426;2022-07-23T03:04:10;44.95;;;15.48;;
67187;SDS011;54117;53.532;49.426;2022-07-23T03:06:36;26.77;;;12.30;;
67187;SDS011;54117;53.532;49.426;2022-07-23T03:09:04;19.15;;;8.27;;
67187;SDS011;54117;53.532;49.426;2022-07-23T03:11:30;15.13;;;6.53;;
67187;SDS011;54117;53.532;49.426;2022-07-23T03:13:57;11.20;;;6.70;;
67187;SDS011;54117;53.532;49.426;2022-07-23T03:16:23;10.57;;;6.63;;
67187;SDS011;54117;53.532;49.426;2022-07-23T03:18:49;20.83;;;5.95;;
67187;SDS011;54117;53.532;49.426;2022-07-23T03:21:15;9.00;;;6.57;;
67187;SDS011;54117;53.532;49.426;2022-07-23T03:23:42;7.45;;;5.68;;
67187;SDS011;54117;53.532;49.426;2022-07-23T03:26:09;11.93;;;6.97;;
67187;SDS011;54117;53.532;49.426;2022-07-23T03:28:35;7.68;;;6.32;;
67187;SDS011;54117;53.532;49.426;2022-07-23T03:31:01;6.03;;;5.35;;
67187;SDS011;54117;53.532;49.426;2022-07-23T03:33:27;8.00;;;5.70;;
67187;SDS011;54117;53.532;49.426;2022-07-23T03:35:53;10.38;;;5.20;;
67187;SDS011;54117;53.532;49.426;2022-07-23T03:38:20;15.85;;;5.15;;
67187;SDS011;54117;53.532;49.426;2022-07-23T03:40:46;14.57;;;6.70;;
67187;SDS011;54117;53.532;49.426;2022-07-23T03:43:12;15.43;;;6.63;;
67187;SDS011;54117;53.532;49.426;2022-07-23T03:45:39;32.25;;;7.07;;
67187;SDS011;54117;53.532;49.426;2022-07-23T03:48:05;28.83;;;7.57;;
67187;SDS011;54117;53.532;49.426;2022-07-23T03:50:31;31.38;;;8.57;;
67187;SDS011;54117;53.532;49.426;2022-07-23T03:52:58;23.38;;;8.40;;
67187;SDS011;54117;53.532;49.426;2022-07-23T03:55:25;31.65;;;8.95;;
67187;SDS011;54117;53.532;49.426;2022-07-23T03:57:51;25.75;;;9.75;;
67187;SDS011;54117;53.532;49.426;2022-07-23T04:00:17;23.25;;;11.23;;
67187;SDS011;54117;53.532;49.426;2022-07-23T04:02:43;20.52;;;10.73;;
67187;SDS011;54117;53.532;49.426;2022-07-23T04:05:10;20.38;;;9.93;;
67187;SDS011;54117;53.532;49.426;2022-07-23T04:07:36;20.77;;;10.30;;
67187;SDS011;54117;53.532;49.426;2022-07-23T04:10:02;10.38;;;9.23;;
67187;SDS011;54117;53.532;49.426;2022-07-23T04:12:29;17.88;;;14.05;;
67187;SDS011;54117;53.532;49.426;2022-07-23T04:14:55;22.48;;;19.33;;
67187;SDS011;54117;53.532;49.426;2022-07-23T04:17:21;32.83;;;17.85;;
67187;SDS011;54117;53.532;49.426;2022-07-23T04:19:48;25.98;;;15.90;;
67187;SDS011;54117;53.532;49.426;2022-07-23T04:22:14;44.45;;;24.50;;
67187;SDS011;54117;53.532;49.426;2022-07-23T04:24:40;34.25;;;15.48;;
67187;SDS011;54117;53.532;49.426;2022-07-23T04:27:06;48.67;;;13.02;;
67187;SDS011;54117;53.532;49.426;2022-07-23T04:29:33;40.17;;;11.63;;
67187;SDS011;54117;53.532;49.426;2022-07-23T04:31:59;33.63;;;11.70;;
67187;SDS011;54117;53.532;49.426;2022-07-23T04:34:25;15.60;;;7.38;;
67187;SDS011;54117;53.532;49.426;2022-07-23T04:36:52;13.57;;;5.63;;
67187;SDS011;54117;53.532;49.426;2022-07-23T04:39:19;12.95;;;4.72;;
67187;SDS011;54117;53.532;49.426;2022-07-23T04:41:45;6.30;;;3.80;;
67187;SDS011;54117;53.532;49.426;2022-07-23T04:44:12;6.20;;;4.07;;
67187;SDS011;54117;53.532;49.426;2022-07-23T04:46:38;5.13;;;4.22;;
67187;SDS011;54117;53.532;49.426;2022-07-23T04:49:05;7.50;;;6.55;;
67187;SDS011;54117;53.532;49.426;2022-07-23T04:51:31;7.07;;;6.35;;
67187;SDS011;54117;53.532;49.426;2022-07-23T04:53:58;8.27;;;7.45;;
67187;SDS011;54117;53.532;49.426;2022-07-23T04:56:24;8.73;;;7.43;;
67187;SDS011;54117;53.532;49.426;2022-07-23T04:58:50;8.77;;;7.85;;
67187;SDS011;54117;53.532;49.426;2022-07-23T05:01:16;9.05;;;6.93;;
67187;SDS011;54117;53.532;49.426;2022-07-23T05:03:43;7.63;;;6.65;;
67187;SDS011;54117;53.532;49.426;2022-07-23T05:06:09;5.65;;;5.10;;
67187;SDS011;54117;53.532;49.426;2022-07-23T05:08:35;7.15;;;5.45;;
67187;SDS011;54117;53.532;49.426;2022-07-23T05:11:01;6.38;;;4.85;;
67187;SDS011;54117;53.532;49.426;2022-07-23T05:13:28;7.63;;;4.07;;
67187;SDS011;54117;53.532;49.426;2022-07-23T05:15:54;8.18;;;4.50;;
67187;SDS011;54117;53.532;49.426;2022-07-23T05:18:20;9.13;;;4.72;;
67187;SDS011;54117;53.532;49.426;2022-07-23T05:20:47;9.25;;;3.42;;
67187;SDS011;54117;53.532;49.426;2022-07-23T05:23:13;9.88;;;3.55;;
67187;SDS011;54117;53.532;49.426;2022-07-23T10:36:59;0.28;;;0.28;;
67187;SDS011;54117;53.532;49.426;2022-07-23T10:47:02;3.78;;;1.92;;
67187;SDS011;54117;53.532;49.426;2022-07-23T10:53:54;0.28;;;0.28;;
67187;SDS011;54117;53.532;49.426;2022-07-23T10:59:27;0.22;;;0.20;;
67187;SDS011;54117;53.532;49.426;2022-07-23T11:01:53;0.65;;;0.25;;
67187;SDS011;54117;53.532;49.426;2022-07-23T11:04:53;0.35;;;0.20;;
67187;SDS011;54117;53.532;49.426;2022-07-23T11:07:24;0.00;;;0.00;;
67187;SDS011;54117;53.532;49.426;2022-07-23T11:09:50;0.20;;;0.20;;
67187;SDS011;54117;53.532;49.426;2022-07-23T11:17:29;3.05;;;0.10;;
67187;SDS011;54117;53.532;49.426;2022-07-23T11:25:08;0.17;;;0.17;;
67187;SDS011;54117;53.532;49.426;2022-07-23T11:27:40;0.00;;;0.00;;
67187;SDS011;54117;53.532;49.426;2022-07-23T11:30:09;0.00;;;0.00;;
67187;SDS011;54117;53.532;49.426;2022-07-23T11:32:38;0.00;;;0.00;;
67187;SDS011;54117;53.532;49.426;2022-07-23T11:40:53;0.00;;;0.00;;
67187;SDS011;54117;53.532;49.426;2022-07-23T11:43:24;0.00;;;0.00;;
67187;SDS011;54117;53.532;49.426;2022-07-23T11:45:52;0.17;;;0.17;;
67187;SDS011;54117;53.532;49.426;2022-07-23T11:48:23;1.55;;;0.20;;
67187;SDS011;54117;53.532;49.426;2022-07-23T11:50:52;0.10;;;0.10;;
67187;SDS011;54117;53.532;49.426;2022-07-23T11:55:54;0.00;;;0.00;;
67187;SDS011;54117;53.532;49.426;2022-07-23T11:58:29;0.28;;;0.22;;
67187;SDS011;54117;53.532;49.426;2022-07-23T12:00:55;0.00;;;0.00;;
67187;SDS011;54117;53.532;49.426;2022-07-23T12:03:22;0.00;;;0.00;;
67187;SDS011;54117;53.532;49.426;2022-07-23T12:05:48;0.00;;;0.00;;
67187;SDS011;54117;53.532;49.426;2022-07-23T12:08:14;0.00;;;0.00;;
67187;SDS011;54117;53.532;49.426;2022-07-23T12:10:44;0.00;;;0.00;;
67187;SDS011;54117;53.532;49.426;2022-07-23T12:13:27;0.00;;;0.00;;
67187;SDS011;54117;53.532;49.426;2022-07-23T12:15:53;0.00;;;0.00;;
67187;SDS011;54117;53.532;49.426;2022-07-23T12:18:24;0.10;;;0.10;;
67187;SDS011;54117;53.532;49.426;2022-07-23T12:20:54;0.20;;;0.20;;
67187;SDS011;54117;53.532;49.426;2022-07-23T12:23:23;0.52;;;0.52;;
67187;SDS011;54117;53.532;49.426;2022-07-23T12:25:54;0.00;;;0.00;;
67187;SDS011;54117;53.532;49.426;2022-07-23T12:28:27;0.55;;;0.10;;
67187;SDS011;54117;53.532;49.426;2022-07-23T12:30:56;0.20;;;0.20;;
67187;SDS011;54117;53.532;49.426;2022-07-23T12:33:24;0.20;;;0.20;;
67187;SDS011;54117;53.532;49.426;2022-07-23T12:36:03;0.10;;;0.10;;
67187;SDS011;54117;53.532;49.426;2022-07-23T12:38:41;0.10;;;0.10;;
67187;SDS011;54117;53.532;49.426;2022-07-23T12:41:09;0.00;;;0.00;;
67187;SDS011;54117;53.532;49.426;2022-07-23T12:43:36;0.00;;;0.00;;
67187;SDS011;54117;53.532;49.426;2022-07-23T12:51:16;0.00;;;0.00;;
67187;SDS011;54117;53.532;49.426;2022-07-23T12:53:50;0.10;;;0.10;;
67187;SDS011;54117;53.532;49.426;2022-07-23T12:56:28;0.00;;;0.00;;
67187;SDS011;54117;53.532;49.426;2022-07-23T12:58:57;0.17;;;0.17;;
67187;SDS011;54117;53.532;49.426;2022-07-23T13:01:30;0.43;;;0.43;;
67187;SDS011;54117;53.532;49.426;2022-07-23T13:06:30;0.05;;;0.05;;
67187;SDS011;54117;53.532;49.426;2022-07-23T13:08:59;0.60;;;0.60;;
67187;SDS011;54117;53.532;49.426;2022-07-23T13:11:26;0.00;;;0.00;;
67187;SDS011;54117;53.532;49.426;2022-07-23T13:13:53;0.10;;;0.10;;
67187;SDS011;54117;53.532;49.426;2022-07-23T13:16:22;0.00;;;0.00;;
67187;SDS011;54117;53.532;49.426;2022-07-23T13:18:48;0.10;;;0.10;;
67187;SDS011;54117;53.532;49.426;2022-07-23T13:21:17;0.20;;;0.20;;
67187;SDS011;54117;53.532;49.426;2022-07-23T13:23:44;0.20;;;0.20;;
67187;SDS011;54117;53.532;49.426;2022-07-23T13:26:10;0.00;;;0.00;;
67187;SDS011;54117;53.532;49.426;2022-07-23T13:28:36;2.70;;;1.73;;
67187;SDS011;54117;53.532;49.426;2022-07-23T13:31:12;6.45;;;4.60;;
67187;SDS011;54117;53.532;49.426;2022-07-23T13:33:39;7.43;;;4.80;;
67187;SDS011;54117;53.532;49.426;2022-07-23T13:36:05;8.07;;;5.35;;
67187;SDS011;54117;53.532;49.426;2022-07-23T13:38:32;6.03;;;5.35;;
67187;SDS011;54117;53.532;49.426;2022-07-23T13:40:58;6.85;;;5.30;;
67187;SDS011;54117;53.532;49.426;2022-07-23T13:43:24;7.03;;;5.78;;
67187;SDS011;54117;53.532;49.426;2022-07-23T13:45:52;6.18;;;4.35;;
67187;SDS011;54117;53.532;49.426;2022-07-23T13:48:18;6.60;;;4.28;;
67187;SDS011;54117;53.532;49.426;2022-07-23T13:50:45;5.07;;;3.80;;
67187;SDS011;54117;53.532;49.426;2022-07-23T13:53:14;6.75;;;5.28;;
67187;SDS011;54117;53.532;49.426;2022-07-23T13:55:46;8.38;;;4.82;;
67187;SDS011;54117;53.532;49.426;2022-07-23T13:58:14;5.78;;;4.50;;
67187;SDS011;54117;53.532;49.426;2022-07-23T14:00:42;7.07;;;4.07;;
67187;SDS011;54117;53.532;49.426;2022-07-23T14:03:11;7.85;;;5.38;;
67187;SDS011;54117;53.532;49.426;2022-07-23T14:05:42;8.25;;;5.05;;
67187;SDS011;54117;53.532;49.426;2022-07-23T14:08:10;6.22;;;5.00;;
67187;SDS011;54117;53.532;49.426;2022-07-23T14:10:36;7.38;;;5.07;;
67187;SDS011;54117;53.532;49.426;2022-07-23T14:13:03;8.48;;;4.72;;
67187;SDS011;54117;53.532;49.426;2022-07-23T14:15:32;8.48;;;5.55;;
67187;SDS011;54117;53.532;49.426;2022-07-23T14:17:58;5.63;;;5.00;;
67187;SDS011;54117;53.532;49.426;2022-07-23T14:20:25;5.80;;;5.20;;
67187;SDS011;54117;53.532;49.426;2022-07-23T14:22:52;7.30;;;5.72;;
67187;SDS011;54117;53.532;49.426;2022-07-23T14:25:21;6.18;;;4.75;;
67187;SDS011;54117;53.532;49.426;2022-07-23T14:27:47;7.53;;;5.00;;
67187;SDS011;54117;53.532;49.426;2022-07-23T14:30:13;9.77;;;6.47;;
67187;SDS011;54117;53.532;49.426;2022-07-23T14:32:40;11.30;;;8.10;;
67187;SDS011;54117;53.532;49.426;2022-07-23T14:35:07;6.97;;;5.97;;
67187;SDS011;54117;53.532;49.426;2022-07-23T14:37:33;8.98;;;5.22;;
67187;SDS011;54117;53.532;49.426;2022-07-23T14:39:59;3.58;;;3.28;;
67187;SDS011;54117;53.532;49.426;2022-07-23T14:42:26;3.70;;;3.28;;
67187;SDS011;54117;53.532;49.426;2022-07-23T14:44:52;6.35;;;4.90;;
67187;SDS011;54117;53.532;49.426;2022-07-23T14:47:18;7.22;;;5.22;;
67187;SDS011;54117;53.532;49.426;2022-07-23T14:49:45;5.85;;;5.25;;
67187;SDS011;54117;53.532;49.426;2022-07-23T14:52:11;7.03;;;5.82;;
67187;SDS011;54117;53.532;49.426;2022-07-23T14:54:38;10.85;;;5.53;;
67187;SDS011;54117;53.532;49.426;2022-07-23T14:57:04;9.00;;;5.85;;
67187;SDS011;54117;53.532;49.426;2022-07-23T14:59:32;6.93;;;5.20;;
67187;SDS011;54117;53.532;49.426;2022-07-23T15:01:59;7.20;;;5.78;;
67187;SDS011;54117;53.532;49.426;2022-07-23T15:04:25;8.13;;;5.85;;
67187;SDS011;54117;53.532;49.426;2022-07-23T15:06:52;12.50;;;6.63;;
67187;SDS011;54117;53.532;49.426;2022-07-23T15:09:18;8.98;;;5.63;;
67187;SDS011;54117;53.532;49.426;2022-07-23T15:11:45;11.82;;;7.50;;
67187;SDS011;54117;53.532;49.426;2022-07-23T15:14:11;9.65;;;7.13;;
67187;SDS011;54117;53.532;49.426;2022-07-23T15:16:38;8.73;;;7.25;;
67187;SDS011;54117;53.532;49.426;2022-07-23T15:19:04;8.40;;;7.15;;
67187;SDS011;54117;53.532;49.426;2022-07-23T15:21:30;9.00;;;6.82;;
67187;SDS011;54117;53.532;49.426;2022-07-23T15:23:57;8.07;;;7.22;;
67187;SDS011;54117;53.532;49.426;2022-07-23T15:26:27;7.68;;;6.35;;
67187;SDS011;54117;53.532;49.426;2022-07-23T15:28:54;8.85;;;6.93;;
67187;SDS011;54117;53.532;49.426;2022-07-23T15:31:21;7.68;;;5.85;;
67187;SDS011;54117;53.532;49.426;2022-07-23T15:33:48;6.53;;;5.90;;
67187;SDS011;54117;53.532;49.426;2022-07-23T15:36:16;10.10;;;6.57;;
67187;SDS011;54117;53.532;49.426;2022-07-23T15:38:46;12.00;;;7.95;;
67187;SDS011;54117;53.532;49.426;2022-07-23T15:41:15;14.95;;;9.88;;
67187;SDS011;54117;53.532;49.426;2022-07-23T15:43:42;14.55;;;9.25;;
67187;SDS011;54117;53.532;49.426;2022-07-23T15:46:08;14.18;;;10.07;;
67187;SDS011;54117;53.532;49.426;2022-07-23T15:48:38;13.98;;;9.32;;
67187;SDS011;54117;53.532;49.426;2022-07-23T15:51:05;14.30;;;8.93;;
67187;SDS011;54117;53.532;49.426;2022-07-23T15:53:32;17.63;;;10.20;;
67187;SDS011;54117;53.532;49.426;2022-07-23T15:55:59;18.73;;;9.75;;
67187;SDS011;54117;53.532;49.426;2022-07-23T15:58:27;14.82;;;9.23;;
67187;SDS011;54117;53.532;49.426;2022-07-23T16:00:54;12.60;;;9.07;;
67187;SDS011;54117;53.532;49.426;2022-07-23T16:03:20;13.00;;;9.45;;
67187;SDS011;54117;53.532;49.426;2022-07-23T16:05:46;13.85;;;9.15;;
67187;SDS011;54117;53.532;49.426;2022-07-23T16:08:15;12.85;;;7.82;;
67187;SDS011;54117;53.532;49.426;2022-07-23T16:10:42;14.00;;;9.05;;
67187;SDS011;54117;53.532;49.426;2022-07-23T16:13:08;11.85;;;9.25;;
67187;SDS011;54117;53.532;49.426;2022-07-23T16:15:35;11.63;;;9.10;;
67187;SDS011;54117;53.532;49.426;2022-07-23T16:18:01;15.90;;;9.63;;
67187;SDS011;54117;53.532;49.426;2022-07-23T16:20:28;12.43;;;10.30;;
67187;SDS011;54117;53.532;49.426;2022-07-23T16:22:55;15.27;;;10.25;;
67187;SDS011;54117;53.532;49.426;2022-07-23T16:25:21;13.25;;;9.02;;
67187;SDS011;54117;53.532;49.426;2022-07-23T16:27:48;11.45;;;8.77;;
67187;SDS011;54117;53.532;49.426;2022-07-23T16:30:14;16.17;;;9.88;;
67187;SDS011;54117;53.532;49.426;2022-07-23T16:32:41;12.98;;;9.73;;
67187;SDS011;54117;53.532;49.426;2022-07-23T16:35:07;15.32;;;10.95;;
67187;SDS011;54117;53.532;49.426;2022-07-23T16:37:35;17.05;;;12.57;;
67187;SDS011;54117;53.532;49.426;2022-07-23T16:40:03;16.20;;;10.95;;
67187;SDS011;54117;53.532;49.426;2022-07-23T16:42:30;17.40;;;12.10;;
67187;SDS011;54117;53.532;49.426;2022-07-23T16:44:56;19.35;;;15.07;;
67187;SDS011;54117;53.532;49.426;2022-07-23T16:47:23;19.70;;;14.38;;
67187;SDS011;54117;53.532;49.426;2022-07-23T16:49:49;23.52;;;15.02;;
67187;SDS011;54117;53.532;49.426;2022-07-23T16:52:16;18.05;;;14.85;;
67187;SDS011;54117;53.532;49.426;2022-07-23T16:54:43;21.50;;;14.25;;
67187;SDS011;54117;53.532;49.426;2022-07-23T16:57:09;17.35;;;13.35;;
67187;SDS011;54117;53.532;49.426;2022-07-23T16:59:35;16.30;;;12.38;;
67187;SDS011;54117;53.532;49.426;2022-07-23T17:02:02;16.98;;;11.48;;
67187;SDS011;54117;53.532;49.426;2022-07-23T17:04:29;18.42;;;13.07;;
67187;SDS011;54117;53.532;49.426;2022-07-23T17:06:55;17.33;;;12.93;;
67187;SDS011;54117;53.532;49.426;2022-07-23T17:09:22;21.95;;;12.82;;
67187;SDS011;54117;53.532;49.426;2022-07-23T17:11:49;20.00;;;12.60;;
67187;SDS011;54117;53.532;49.426;2022-07-23T17:14:15;19.63;;;12.73;;
67187;SDS011;54117;53.532;49.426;2022-07-23T17:16:41;16.73;;;11.10;;
67187;SDS011;54117;53.532;49.426;2022-07-23T17:19:10;15.55;;;10.77;;
67187;SDS011;54117;53.532;49.426;2022-07-23T17:21:37;18.23;;;10.10;;
67187;SDS011;54117;53.532;49.426;2022-07-23T17:24:03;17.63;;;10.80;;
67187;SDS011;54117;53.532;49.426;2022-07-23T17:26:29;22.33;;;9.88;;
67187;SDS011;54117;53.532;49.426;2022-07-23T17:28:58;14.70;;;10.23;;
67187;SDS011;54117;53.532;49.426;2022-07-23T17:31:25;17.50;;;11.85;;
67187;SDS011;54117;53.532;49.426;2022-07-23T17:33:51;22.02;;;12.98;;
67187;SDS011;54117;53.532;49.426;2022-07-23T17:36:17;20.42;;;12.55;;
67187;SDS011;54117;53.532;49.426;2022-07-23T17:38:43;26.65;;;15.02;;
67187;SDS011;54117;53.532;49.426;2022-07-23T17:41:10;26.73;;;16.35;;
67187;SDS011;54117;53.532;49.426;2022-07-23T17:43:36;34.55;;;19.75;;
67187;SDS011;54117;53.532;49.426;2022-07-23T17:46:03;30.33;;;16.08;;
67187;SDS011;54117;53.532;49.426;2022-07-23T17:48:29;23.10;;;15.60;;
67187;SDS011;54117;53.532;49.426;2022-07-23T17:50:55;28.65;;;18.67;;
67187;SDS011;54117;53.532;49.426;2022-07-23T17:53:22;28.67;;;18.30;;
67187;SDS011;54117;53.532;49.426;2022-07-23T17:55:51;31.02;;;18.73;;
67187;SDS011;54117;53.532;49.426;2022-07-23T17:58:18;24.88;;;17.88;;
67187;SDS011;54117;53.532;49.426;2022-07-23T18:00:44;32.72;;;19.05;;
67187;SDS011;54117;53.532;49.426;2022-07-23T18:03:12;27.95;;;18.38;;
67187;SDS011;54117;53.532;49.426;2022-07-23T18:05:38;29.80;;;18.65;;
67187;SDS011;54117;53.532;49.426;2022-07-23T18:08:06;32.35;;;18.98;;
67187;SDS011;54117;53.532;49.426;2022-07-23T18:10:33;26.88;;;20.23;;
67187;SDS011;54117;53.532;49.426;2022-07-23T18:13:00;37.40;;;23.38;;
67187;SDS011;54117;53.532;49.426;2022-07-23T18:15:27;37.38;;;24.25;;
67187;SDS011;54117;53.532;49.426;2022-07-23T18:17:53;36.60;;;24.45;;
67187;SDS011;54117;53.532;49.426;2022-07-23T18:20:20;37.78;;;23.10;;
67187;SDS011;54117;53.532;49.426;2022-07-23T18:22:46;35.88;;;23.85;;
67187;SDS011;54117;53.532;49.426;2022-07-23T18:25:23;29.77;;;20.35;;
67187;SDS011;54117;53.532;49.426;2022-07-23T18:27:50;23.38;;;17.80;;
67187;SDS011;54117;53.532;49.426;2022-07-23T18:30:16;26.10;;;18.42;;
67187;SDS011;54117;53.532;49.426;2022-07-23T18:32:42;26.05;;;17.83;;
67187;SDS011;54117;53.532;49.426;2022-07-23T18:35:09;29.65;;;17.55;;
67187;SDS011;54117;53.532;49.426;2022-07-23T18:37:38;31.35;;;18.33;;
67187;SDS011;54117;53.532;49.426;2022-07-23T18:40:05;30.20;;;20.67;;
67187;SDS011;54117;53.532;49.426;2022-07-23T18:42:33;37.05;;;24.02;;
67187;SDS011;54117;53.532;49.426;2022-07-23T18:45:01;27.60;;;20.27;;
67187;SDS011;54117;53.532;49.426;2022-07-23T18:47:35;24.35;;;19.35;;
67187;SDS011;54117;53.532;49.426;2022-07-23T18:50:03;30.27;;;20.67;;
67187;SDS011;54117;53.532;49.426;2022-07-23T18:52:31;25.70;;;17.42;;
67187;SDS011;54117;53.532;49.426;2022-07-23T18:55:00;24.67;;;17.48;;
67187;SDS011;54117;53.532;49.426;2022-07-23T18:57:26;30.77;;;16.92;;
67187;SDS011;54117;53.532;49.426;2022-07-23T18:59:53;26.85;;;18.10;;
67187;SDS011;54117;53.532;49.426;2022-07-23T19:02:19;29.60;;;19.25;;
67187;SDS011;54117;53.532;49.426;2022-07-23T19:04:45;35.60;;;19.38;;
67187;SDS011;54117;53.532;49.426;2022-07-23T19:07:14;25.50;;;18.00;;
67187;SDS011;54117;53.532;49.426;2022-07-23T19:09:43;28.52;;;19.10;;
67187;SDS011;54117;53.532;49.426;2022-07-23T19:12:09;26.52;;;17.85;;
67187;SDS011;54117;53.532;49.426;2022-07-23T19:14:36;36.15;;;19.80;;
67187;SDS011;54117;53.532;49.426;2022-07-23T19:17:03;32.88;;;19.45;;
67187;SDS011;54117;53.532;49.426;2022-07-23T19:19:29;26.42;;;18.02;;
67187;SDS011;54117;53.532;49.426;2022-07-23T19:21:55;33.30;;;17.92;;
67187;SDS011;54117;53.532;49.426;2022-07-23T19:24:25;27.20;;;17.13;;
67187;SDS011;54117;53.532;49.426;2022-07-23T19:27:00;30.75;;;17.05;;
67187;SDS011;54117;53.532;49.426;2022-07-23T19:29:27;26.83;;;16.60;;
67187;SDS011;54117;53.532;49.426;2022-07-23T19:31:59;28.40;;;15.50;;
67187;SDS011;54117;53.532;49.426;2022-07-23T19:34:25;27.90;;;17.23;;
67187;SDS011;54117;53.532;49.426;2022-07-23T19:36:52;27.20;;;14.93;;
67187;SDS011;54117;53.532;49.426;2022-07-23T19:39:18;25.70;;;15.50;;
67187;SDS011;54117;53.532;49.426;2022-07-23T19:41:45;28.83;;;15.77;;
67187;SDS011;54117;53.532;49.426;2022-07-23T19:44:12;23.55;;;15.00;;
67187;SDS011;54117;53.532;49.426;2022-07-23T19:46:40;23.30;;;15.02;;
67187;SDS011;54117;53.532;49.426;2022-07-23T19:49:06;25.67;;;15.48;;
67187;SDS011;54117;53.532;49.426;2022-07-23T19:51:33;26.65;;;14.90;;
67187;SDS011;54117;53.532;49.426;2022-07-23T19:54:02;23.63;;;14.57;;
67187;SDS011;54117;53.532;49.426;2022-07-23T19:56:28;27.85;;;14.88;;
67187;SDS011;54117;53.532;49.426;2022-07-23T19:58:55;22.17;;;14.73;;
67187;SDS011;54117;53.532;49.426;2022-07-23T20:01:21;19.88;;;14.65;;
67187;SDS011;54117;53.532;49.426;2022-07-23T20:03:53;24.60;;;15.60;;
67187;SDS011;54117;53.532;49.426;2022-07-23T20:06:19;24.65;;;15.15;;
67187;SDS011;54117;53.532;49.426;2022-07-23T20:08:45;26.60;;;15.15;;
67187;SDS011;54117;53.532;49.426;2022-07-23T20:11:12;26.45;;;14.55;;
67187;SDS011;54117;53.532;49.426;2022-07-23T20:13:41;38.67;;;16.45;;
67187;SDS011;54117;53.532;49.426;2022-07-23T20:16:08;28.17;;;14.60;;